Time;durP1;ratioP1;P1;durP2;ratioP2;P2;SDS_P1;SDS_P2;PMS_P1;PMS_P2;Temp;Humidity;BMP_temperature;BMP_pressure;BME280_temperature;BME280_humidity;BME280_pressure;Samples;Min_cycle;Max_cycle;Signal;HPM_P1;HPM_P2
2024/01/14 00:01:53;;;;;;;51.88;21.67;;;-2.30;99.90;;;;;;4967511;28;20037;-72
2024/01/14 00:04:19;;;;;;;62.47;22.67;;;-2.30;99.90;;;;;;4967797;28;20066;-73
2024/01/14 00:06:45;;;;;;;52.25;19.98;;;-2.30;99.90;;;;;;4968366;28;20027;-73
2024/01/14 00:09:11;;;;;;;52.45;22.65;;;-2.30;99.90;;;;;;4965224;28;20027;-73
2024/01/14 00:11:37;;;;;;;54.85;22.40;;;-2.30;99.90;;;;;;4970109;28;20061;-73
2024/01/14 00:14:03;;;;;;;58.72;22.23;;;-2.30;99.90;;;;;;4966627;28;20035;-73
2024/01/14 00:16:34;;;;;;;53.80;22.27;;;-2.30;99.90;;;;;;4969338;28;20046;-73
2024/01/14 00:19:00;;;;;;;56.70;21.95;;;-2.30;99.90;;;;;;4969322;28;20027;-73
2024/01/14 00:21:26;;;;;;;57.15;21.45;;;-2.30;99.90;;;;;;4968353;28;20034;-73
2024/01/14 00:23:51;;;;;;;55.00;20.90;;;-2.30;99.90;;;;;;4974647;28;20494;-73
2024/01/14 00:26:17;;;;;;;54.63;21.17;;;-2.30;99.90;;;;;;4974607;28;20023;-73
2024/01/14 00:28:42;;;;;;;48.70;20.15;;;-2.40;99.90;;;;;;4968939;28;20030;-72
2024/01/14 00:31:08;;;;;;;53.50;21.50;;;-2.40;99.90;;;;;;4973697;28;20031;-73
2024/01/14 00:33:34;;;;;;;50.45;21.52;;;-2.40;99.90;;;;;;4970114;28;20030;-73
2024/01/14 00:36:03;;;;;;;47.75;20.02;;;-2.40;99.90;;;;;;4971617;28;20023;-73
2024/01/14 00:38:28;;;;;;;52.30;19.95;;;-2.40;99.90;;;;;;4972613;28;20038;-73
2024/01/14 00:40:54;;;;;;;51.22;20.17;;;-2.50;99.90;;;;;;4972439;28;20471;-72
2024/01/14 00:43:20;;;;;;;45.90;20.17;;;-2.50;99.90;;;;;;4973647;28;20057;-73
2024/01/14 00:45:46;;;;;;;48.67;19.70;;;-2.50;99.90;;;;;;4970795;28;20031;-72
2024/01/14 00:48:11;;;;;;;48.95;19.48;;;-2.50;99.90;;;;;;4968524;28;20070;-73
2024/01/14 00:50:37;;;;;;;47.10;20.00;;;-2.60;99.90;;;;;;4970607;28;20027;-73
2024/01/14 00:53:03;;;;;;;46.45;18.60;;;-2.60;99.90;;;;;;4969303;28;20023;-73
2024/01/14 00:55:28;;;;;;;44.95;18.17;;;-2.60;99.90;;;;;;4971625;28;20042;-72
2024/01/14 00:57:54;;;;;;;48.20;19.30;;;-2.60;99.90;;;;;;4972078;28;20439;-72
2024/01/14 01:00:20;;;;;;;45.17;17.98;;;-2.60;99.90;;;;;;4970912;28;20041;-72
2024/01/14 01:02:45;;;;;;;48.38;21.10;;;-2.70;99.90;;;;;;4971297;28;20296;-72
2024/01/14 01:05:11;;;;;;;47.15;18.23;;;-2.70;99.90;;;;;;4969901;28;20038;-72
2024/01/14 01:07:36;;;;;;;49.22;19.75;;;-2.70;99.90;;;;;;4969102;28;20026;-72
2024/01/14 01:10:03;;;;;;;44.40;17.92;;;-2.70;99.90;;;;;;4969542;28;20027;-73
2024/01/14 01:12:28;;;;;;;46.33;19.65;;;-2.70;99.90;;;;;;4972555;28;20054;-73
2024/01/14 01:14:54;;;;;;;49.13;18.75;;;-2.80;99.90;;;;;;4971883;28;20057;-73
2024/01/14 01:17:20;;;;;;;43.40;18.40;;;-2.80;99.90;;;;;;4969435;28;20529;-73
2024/01/14 01:19:46;;;;;;;46.90;18.48;;;-2.80;99.90;;;;;;4969981;28;20026;-73
2024/01/14 01:22:12;;;;;;;44.00;17.63;;;-2.80;99.90;;;;;;4968105;28;20490;-73
2024/01/14 01:24:38;;;;;;;45.13;19.02;;;-2.80;99.90;;;;;;4969793;28;20095;-72
2024/01/14 01:27:04;;;;;;;46.38;18.02;;;-2.80;99.90;;;;;;4972670;28;20019;-73
2024/01/14 01:29:30;;;;;;;46.55;18.80;;;-2.80;99.90;;;;;;4972650;28;20459;-73
2024/01/14 01:31:56;;;;;;;46.33;18.05;;;-2.90;99.90;;;;;;4972310;28;20023;-72
2024/01/14 01:34:21;;;;;;;38.88;16.73;;;-2.90;99.90;;;;;;4968384;28;20507;-72
2024/01/14 01:36:47;;;;;;;44.15;17.60;;;-2.90;99.90;;;;;;4976871;28;20043;-72
2024/01/14 01:39:14;;;;;;;48.63;18.98;;;-2.90;99.90;;;;;;4982000;28;20031;-73
2024/01/14 01:41:40;;;;;;;41.10;17.02;;;-2.90;99.90;;;;;;4972521;28;20039;-73
2024/01/14 01:44:05;;;;;;;47.65;17.88;;;-2.90;99.90;;;;;;4968405;28;20035;-73
2024/01/14 01:46:32;;;;;;;47.58;18.55;;;-3.00;99.90;;;;;;4967131;28;20032;-73
2024/01/14 01:48:59;;;;;;;53.65;20.92;;;-2.90;99.90;;;;;;4969250;28;20509;-73
2024/01/14 01:51:25;;;;;;;49.78;19.38;;;-3.00;99.90;;;;;;4971222;28;20022;-73
2024/01/14 01:53:51;;;;;;;48.25;18.70;;;-3.00;99.90;;;;;;4971293;28;20019;-72
2024/01/14 01:56:17;;;;;;;48.38;19.08;;;-3.00;99.90;;;;;;4969292;28;20410;-72
2024/01/14 01:58:43;;;;;;;48.28;19.40;;;-3.00;99.90;;;;;;4966445;28;20026;-72
2024/01/14 02:01:09;;;;;;;45.25;20.10;;;-3.00;99.90;;;;;;4969264;28;20038;-72
2024/01/14 02:03:36;;;;;;;57.40;21.63;;;-3.00;99.90;;;;;;4969273;28;20042;-72
2024/01/14 02:06:02;;;;;;;49.55;20.02;;;-3.00;99.90;;;;;;4968789;28;20030;-74
2024/01/14 02:08:28;;;;;;;45.05;18.52;;;-3.00;99.90;;;;;;4968234;28;20022;-73
2024/01/14 02:10:54;;;;;;;51.10;19.70;;;-3.00;99.90;;;;;;4972459;28;20496;-73
2024/01/14 02:13:20;;;;;;;50.00;19.45;;;-3.10;99.90;;;;;;4965788;28;20026;-73
2024/01/14 02:15:46;;;;;;;49.88;19.27;;;-3.10;99.90;;;;;;4966618;28;20386;-72
2024/01/14 02:18:11;;;;;;;57.05;20.80;;;-3.10;99.90;;;;;;4968003;28;20105;-72
2024/01/14 02:20:37;;;;;;;50.22;21.13;;;-3.20;99.90;;;;;;4967719;28;20049;-73
2024/01/14 02:23:06;;;;;;;52.15;19.83;;;-3.20;99.90;;;;;;4966339;28;20090;-73
2024/01/14 02:25:32;;;;;;;54.85;20.08;;;-3.30;99.90;;;;;;4967328;28;20034;-73
2024/01/14 02:27:57;;;;;;;52.72;19.65;;;-3.30;99.90;;;;;;4963501;28;20030;-72
2024/01/14 02:30:23;;;;;;;47.75;18.10;;;-3.30;99.90;;;;;;4970452;28;20057;-72
2024/01/14 02:32:50;;;;;;;46.35;19.98;;;-3.30;99.90;;;;;;4965733;28;20481;-72
2024/01/14 02:35:16;;;;;;;40.05;17.75;;;-3.40;99.90;;;;;;4968857;28;20025;-73
2024/01/14 02:37:44;;;;;;;49.88;19.42;;;-3.40;99.90;;;;;;4964800;28;20536;-72
2024/01/14 02:40:11;;;;;;;44.38;18.75;;;-3.40;99.90;;;;;;4963656;28;20478;-72
2024/01/14 02:42:38;;;;;;;38.45;16.02;;;-3.50;99.90;;;;;;4984119;28;20033;-72
2024/01/14 02:45:04;;;;;;;40.15;17.30;;;-3.50;99.90;;;;;;4968782;28;20031;-73
2024/01/14 02:47:29;;;;;;;44.53;17.48;;;-3.50;99.90;;;;;;4969118;28;20042;-72
2024/01/14 02:49:55;;;;;;;46.72;17.02;;;-3.50;99.90;;;;;;4968823;28;20042;-72
2024/01/14 02:52:20;;;;;;;44.60;17.13;;;-3.60;99.90;;;;;;4968975;28;20673;-71
2024/01/14 02:54:46;;;;;;;41.03;17.10;;;-3.60;99.90;;;;;;4965738;28;20058;-71
2024/01/14 02:57:12;;;;;;;44.58;16.80;;;-3.60;99.90;;;;;;4967910;28;20031;-71
2024/01/14 02:59:37;;;;;;;48.22;18.00;;;-3.60;99.90;;;;;;4971092;28;20039;-71
2024/01/14 03:02:03;;;;;;;44.88;18.67;;;-3.70;99.90;;;;;;4970303;28;20030;-71
2024/01/14 03:04:29;;;;;;;45.58;17.95;;;-3.70;99.90;;;;;;4968614;28;20054;-71
2024/01/14 03:06:54;;;;;;;49.00;19.65;;;-3.70;99.90;;;;;;4968292;28;20070;-71
2024/01/14 03:09:20;;;;;;;55.22;19.08;;;-3.80;99.90;;;;;;4968988;28;20026;-71
2024/01/14 03:11:46;;;;;;;43.58;17.27;;;-3.70;99.90;;;;;;4969042;28;20023;-71
2024/01/14 03:14:11;;;;;;;52.38;19.50;;;-3.70;99.90;;;;;;4966378;28;20101;-71
2024/01/14 03:16:37;;;;;;;47.22;18.83;;;-3.80;99.90;;;;;;4968679;28;20035;-71
2024/01/14 03:19:03;;;;;;;47.50;17.90;;;-3.80;99.90;;;;;;4966809;28;20169;-71
2024/01/14 03:21:28;;;;;;;51.88;19.85;;;-3.80;99.90;;;;;;4968976;28;20057;-71
2024/01/14 03:23:54;;;;;;;46.97;17.27;;;-3.80;99.90;;;;;;4970767;28;20035;-71
2024/01/14 03:26:19;;;;;;;48.58;17.63;;;-3.90;99.90;;;;;;4970652;28;20110;-71
2024/01/14 03:28:45;;;;;;;42.80;17.33;;;-3.90;99.90;;;;;;4963928;28;20033;-72
2024/01/14 03:31:15;;;;;;;40.08;18.10;;;-3.90;99.90;;;;;;4967603;28;20018;-72
2024/01/14 03:33:42;;;;;;;49.53;17.55;;;-3.90;99.90;;;;;;4968017;28;20029;-72
2024/01/14 03:36:08;;;;;;;46.63;17.38;;;-3.90;99.90;;;;;;4969121;28;20061;-72
2024/01/14 03:38:34;;;;;;;40.38;16.23;;;-3.90;99.90;;;;;;4967337;28;20117;-72
2024/01/14 03:40:59;;;;;;;43.40;16.63;;;-3.90;99.90;;;;;;4968918;28;20121;-72
2024/01/14 03:43:25;;;;;;;47.83;17.95;;;-3.90;99.90;;;;;;4969221;28;20050;-72
2024/01/14 03:45:50;;;;;;;54.75;21.73;;;-3.90;99.90;;;;;;4969147;28;20026;-72
2024/01/14 03:48:16;;;;;;;53.78;19.13;;;-3.90;99.90;;;;;;4970185;28;20055;-72
2024/01/14 03:50:42;;;;;;;45.53;21.13;;;-3.90;99.90;;;;;;4966889;28;20030;-72
2024/01/14 03:53:07;;;;;;;55.50;19.40;;;-3.90;99.90;;;;;;4970059;28;20367;-72
2024/01/14 03:55:33;;;;;;;50.47;18.35;;;-3.90;99.90;;;;;;4968307;28;20097;-72
2024/01/14 03:57:59;;;;;;;52.88;21.15;;;-3.80;99.90;;;;;;4966214;28;20512;-72
2024/01/14 04:00:24;;;;;;;56.30;21.60;;;-3.80;99.90;;;;;;4970051;28;20039;-72
2024/01/14 04:02:50;;;;;;;54.50;20.15;;;-3.80;99.90;;;;;;4965228;28;20448;-72
2024/01/14 04:05:16;;;;;;;55.15;21.05;;;-3.80;99.90;;;;;;4968060;28;20121;-72
2024/01/14 04:07:41;;;;;;;52.60;20.67;;;-3.80;99.90;;;;;;4970056;28;20418;-72
2024/01/14 04:10:07;;;;;;;61.70;22.83;;;-3.80;99.90;;;;;;4964340;28;20135;-72
2024/01/14 04:12:33;;;;;;;51.90;19.65;;;-3.80;99.90;;;;;;4968293;28;20113;-72
2024/01/14 04:14:58;;;;;;;52.35;18.83;;;-3.80;99.90;;;;;;4969404;28;20205;-72
2024/01/14 04:17:24;;;;;;;46.28;17.52;;;-3.80;99.90;;;;;;4965997;28;20101;-72
2024/01/14 04:19:50;;;;;;;45.72;17.83;;;-3.80;99.90;;;;;;4968023;28;20027;-72
2024/01/14 04:22:15;;;;;;;47.65;19.27;;;-3.80;99.90;;;;;;4969240;28;20035;-72
2024/01/14 04:24:41;;;;;;;43.30;16.30;;;-3.80;99.90;;;;;;4968543;28;20398;-72
2024/01/14 04:27:07;;;;;;;46.20;18.67;;;-3.80;99.90;;;;;;4966915;28;20031;-72
2024/01/14 04:29:33;;;;;;;47.45;18.42;;;-3.80;99.90;;;;;;4965818;28;21132;-72
2024/01/14 04:32:00;;;;;;;49.78;18.80;;;-3.80;99.90;;;;;;4966789;28;20363;-72
2024/01/14 04:34:25;;;;;;;49.25;19.33;;;-3.80;99.90;;;;;;4967582;28;20026;-72
2024/01/14 04:36:51;;;;;;;56.08;21.65;;;-3.80;99.90;;;;;;4964740;28;20039;-72
2024/01/14 04:39:17;;;;;;;49.72;18.27;;;-3.80;99.90;;;;;;4966736;28;20035;-72
2024/01/14 04:41:42;;;;;;;52.47;18.50;;;-3.70;99.90;;;;;;4966769;28;20038;-72
2024/01/14 04:44:08;;;;;;;53.60;19.67;;;-3.70;99.90;;;;;;4969416;28;20027;-72
2024/01/14 04:46:33;;;;;;;50.00;19.38;;;-3.70;99.90;;;;;;4964522;28;20035;-72
2024/01/14 04:48:59;;;;;;;51.60;18.73;;;-3.70;99.90;;;;;;4964090;28;20025;-72
2024/01/14 04:51:24;;;;;;;52.67;18.77;;;-3.70;99.90;;;;;;4965612;28;20419;-71
2024/01/14 04:53:50;;;;;;;45.65;17.05;;;-3.70;99.90;;;;;;4967768;28;20047;-71
2024/01/14 04:56:16;;;;;;;47.72;19.38;;;-3.70;99.90;;;;;;4966146;28;20035;-71
2024/01/14 04:58:41;;;;;;;49.75;18.98;;;-3.80;99.90;;;;;;4968643;28;20030;-71
2024/01/14 05:01:07;;;;;;;52.33;19.67;;;-3.90;99.90;;;;;;4964981;28;20034;-71
2024/01/14 05:03:32;;;;;;;51.33;19.60;;;-3.80;99.90;;;;;;4965789;28;20050;-71
2024/01/14 05:05:58;;;;;;;49.08;20.85;;;-3.80;99.90;;;;;;4967490;28;20034;-71
2024/01/14 05:08:24;;;;;;;50.80;18.98;;;-3.80;99.90;;;;;;4967903;28;20023;-71
2024/01/14 05:10:49;;;;;;;50.95;19.77;;;-3.80;99.90;;;;;;4970901;28;20097;-71
2024/01/14 05:13:15;;;;;;;49.92;19.83;;;-3.80;99.90;;;;;;4968181;28;20029;-71
2024/01/14 05:15:40;;;;;;;50.65;19.02;;;-3.80;99.90;;;;;;4968638;28;20039;-71
2024/01/14 05:18:06;;;;;;;50.78;18.70;;;-3.80;99.90;;;;;;4968443;28;20034;-71
2024/01/14 05:20:32;;;;;;;50.22;19.63;;;-3.90;99.90;;;;;;4968845;28;20109;-71
2024/01/14 05:22:57;;;;;;;54.60;19.83;;;-3.90;99.90;;;;;;4970819;28;20054;-70
2024/01/14 05:25:23;;;;;;;53.67;19.30;;;-3.90;99.90;;;;;;4970620;28;20662;-69
2024/01/14 05:27:48;;;;;;;53.97;20.42;;;-3.90;99.90;;;;;;4972171;28;20027;-70
2024/01/14 05:30:14;;;;;;;53.05;20.52;;;-3.90;99.90;;;;;;4967531;28;20491;-72
2024/01/14 05:32:40;;;;;;;55.10;20.55;;;-3.90;99.90;;;;;;4969041;28;20019;-72
2024/01/14 05:35:05;;;;;;;46.53;18.75;;;-3.90;99.90;;;;;;4969010;28;20027;-72
2024/01/14 05:37:31;;;;;;;49.97;19.60;;;-3.90;99.90;;;;;;4973461;28;20044;-72
2024/01/14 05:39:57;;;;;;;53.38;20.73;;;-3.90;99.90;;;;;;4971676;28;20057;-71
2024/01/14 05:42:23;;;;;;;50.40;20.38;;;-3.80;99.90;;;;;;4973567;28;20058;-70
2024/01/14 05:44:48;;;;;;;53.65;20.73;;;-3.80;99.90;;;;;;4973392;28;20039;-70
2024/01/14 05:47:14;;;;;;;52.65;20.55;;;-3.80;99.90;;;;;;4972280;28;20027;-71
2024/01/14 05:49:39;;;;;;;59.90;20.90;;;-3.70;99.90;;;;;;4966906;28;20027;-73
2024/01/14 05:52:05;;;;;;;52.75;19.70;;;-3.70;99.90;;;;;;4970595;28;20037;-73
2024/01/14 05:54:31;;;;;;;50.88;19.80;;;-3.70;99.90;;;;;;4970901;28;20019;-73
2024/01/14 05:56:57;;;;;;;56.50;19.98;;;-3.70;99.90;;;;;;4967440;28;20031;-72
2024/01/14 05:59:23;;;;;;;62.17;21.00;;;-3.70;99.90;;;;;;4968188;28;20093;-72
2024/01/14 06:01:49;;;;;;;52.65;20.73;;;-3.70;99.90;;;;;;4971651;28;20027;-72
2024/01/14 06:04:14;;;;;;;59.35;23.83;;;-3.70;99.90;;;;;;4967384;28;20026;-71
2024/01/14 06:06:40;;;;;;;52.10;20.48;;;-3.70;99.90;;;;;;4969423;28;20035;-71
2024/01/14 06:09:05;;;;;;;50.50;20.20;;;-3.70;99.90;;;;;;4967001;28;20034;-71
2024/01/14 06:11:31;;;;;;;49.88;20.70;;;-3.70;99.90;;;;;;4973069;28;20022;-71
2024/01/14 06:13:56;;;;;;;53.42;20.13;;;-3.70;99.90;;;;;;4960986;28;20037;-71
2024/01/14 06:16:22;;;;;;;49.35;19.80;;;-3.70;99.90;;;;;;4963611;28;20514;-71
2024/01/14 06:18:48;;;;;;;48.85;19.98;;;-3.70;99.90;;;;;;4968908;28;20030;-71
2024/01/14 06:21:13;;;;;;;51.20;19.17;;;-3.60;99.90;;;;;;4970738;28;20050;-72
2024/01/14 06:23:40;;;;;;;52.88;20.15;;;-3.60;99.90;;;;;;4968126;28;20038;-72
2024/01/14 06:26:05;;;;;;;48.55;19.13;;;-3.70;99.90;;;;;;4967657;28;20027;-72
2024/01/14 06:28:31;;;;;;;54.22;20.42;;;-3.70;99.90;;;;;;4970865;28;20019;-71
2024/01/14 06:30:56;;;;;;;52.03;20.27;;;-3.60;99.90;;;;;;4966305;28;20027;-72
2024/01/14 06:33:22;;;;;;;57.42;21.42;;;-3.60;99.90;;;;;;4970080;28;20023;-72
2024/01/14 06:35:47;;;;;;;49.92;18.90;;;-3.60;99.90;;;;;;4968435;28;20026;-71
2024/01/14 06:38:13;;;;;;;56.95;20.45;;;-3.60;99.90;;;;;;4970169;28;20078;-72
2024/01/14 06:40:39;;;;;;;53.30;20.13;;;-3.60;99.90;;;;;;4967176;28;20213;-71
2024/01/14 06:43:05;;;;;;;47.97;19.73;;;-3.60;99.90;;;;;;4966218;28;20030;-71
2024/01/14 06:45:30;;;;;;;59.05;20.02;;;-3.60;99.90;;;;;;4970995;28;20035;-72
2024/01/14 06:47:56;;;;;;;55.35;20.80;;;-3.60;99.90;;;;;;4969104;28;20050;-71
2024/01/14 06:50:21;;;;;;;57.72;20.38;;;-3.60;99.90;;;;;;4970265;28;20018;-72
2024/01/14 06:52:47;;;;;;;49.20;19.83;;;-3.60;99.90;;;;;;4971518;28;20031;-71
2024/01/14 06:55:13;;;;;;;57.58;20.95;;;-3.50;99.90;;;;;;4965057;28;20490;-72
2024/01/14 06:57:39;;;;;;;55.42;19.60;;;-3.60;99.90;;;;;;4959778;28;20022;-71
2024/01/14 07:00:07;;;;;;;50.15;20.30;;;-3.50;99.90;;;;;;4968961;28;20441;-72
2024/01/14 07:02:33;;;;;;;50.55;20.35;;;-3.50;99.90;;;;;;4964542;28;20642;-72
2024/01/14 07:04:59;;;;;;;53.22;20.23;;;-3.50;99.90;;;;;;4967956;28;20022;-71
2024/01/14 07:07:25;;;;;;;49.00;19.83;;;-3.40;99.90;;;;;;4969592;28;20026;-71
2024/01/14 07:09:50;;;;;;;55.58;20.05;;;-3.50;99.90;;;;;;4971418;28;20535;-71
2024/01/14 07:12:16;;;;;;;54.78;20.45;;;-3.50;99.90;;;;;;4968703;28;20505;-71
2024/01/14 07:14:42;;;;;;;49.67;19.45;;;-3.40;99.90;;;;;;4969080;28;20110;-71
2024/01/14 07:17:07;;;;;;;53.17;20.05;;;-3.40;99.90;;;;;;4970900;28;20062;-71
2024/01/14 07:19:35;;;;;;;54.35;20.25;;;-3.40;99.90;;;;;;4966752;28;20097;-71
2024/01/14 07:22:01;;;;;;;52.05;21.67;;;-3.40;99.90;;;;;;4969110;28;20027;-72
2024/01/14 07:24:26;;;;;;;48.95;19.55;;;-3.40;99.90;;;;;;4969436;28;20030;-72
2024/01/14 07:26:52;;;;;;;55.40;20.92;;;-3.50;99.90;;;;;;4970371;28;20026;-72
2024/01/14 07:29:17;;;;;;;53.97;21.40;;;-3.40;99.90;;;;;;4971875;28;20023;-72
2024/01/14 07:31:43;;;;;;;55.60;20.70;;;-3.40;99.90;;;;;;4969939;28;20023;-72
2024/01/14 07:34:09;;;;;;;55.38;20.08;;;-3.40;99.90;;;;;;4970221;28;20441;-72
2024/01/14 07:36:34;;;;;;;46.00;19.40;;;-3.30;99.90;;;;;;4970134;28;20019;-72
2024/01/14 07:39:00;;;;;;;47.13;18.33;;;-3.30;99.90;;;;;;4969885;28;20039;-72
2024/01/14 07:41:26;;;;;;;58.55;21.42;;;-3.30;99.90;;;;;;4970172;28;20045;-72
2024/01/14 07:43:52;;;;;;;49.30;20.00;;;-3.30;99.90;;;;;;4968773;28;20027;-72
2024/01/14 07:46:18;;;;;;;53.83;21.02;;;-3.30;99.90;;;;;;4968185;28;20050;-72
2024/01/14 07:48:44;;;;;;;54.47;20.13;;;-3.30;99.90;;;;;;4971120;28;20031;-72
2024/01/14 07:51:09;;;;;;;52.80;19.67;;;-3.30;99.90;;;;;;4968911;28;20065;-71
2024/01/14 07:53:36;;;;;;;49.47;20.50;;;-3.30;99.90;;;;;;4962864;28;20070;-70
2024/01/14 07:56:02;;;;;;;56.35;20.30;;;-3.30;99.90;;;;;;4964964;28;20033;-72
2024/01/14 07:58:28;;;;;;;49.78;20.67;;;-3.30;99.90;;;;;;4968939;28;20030;-72
2024/01/14 08:00:54;;;;;;;49.10;19.17;;;-3.20;99.90;;;;;;4963180;28;20022;-72
2024/01/14 08:03:19;;;;;;;53.22;18.98;;;-3.20;99.90;;;;;;4968309;28;20379;-71
2024/01/14 08:05:45;;;;;;;50.95;18.83;;;-3.20;99.90;;;;;;4968311;28;20477;-72
2024/01/14 08:08:12;;;;;;;52.75;18.23;;;-3.20;99.90;;;;;;4966069;28;20027;-71
2024/01/14 08:10:38;;;;;;;46.20;17.15;;;-3.20;99.90;;;;;;4962408;28;20019;-71
2024/01/14 08:13:04;;;;;;;49.88;18.90;;;-3.30;99.90;;;;;;4962355;28;20014;-71
2024/01/14 08:15:30;;;;;;;47.17;19.45;;;-3.20;99.90;;;;;;4966664;28;20039;-72
2024/01/14 08:17:56;;;;;;;45.88;18.50;;;-3.20;99.90;;;;;;4966985;28;20442;-73
2024/01/14 08:20:22;;;;;;;46.35;17.45;;;-3.10;99.90;;;;;;4969381;28;20500;-72
2024/01/14 08:22:48;;;;;;;53.45;19.48;;;-3.10;99.90;;;;;;4965925;28;20137;-73
2024/01/14 08:25:14;;;;;;;56.58;19.13;;;-3.00;99.90;;;;;;4966928;28;20055;-72
2024/01/14 08:27:40;;;;;;;47.95;18.73;;;-3.00;99.90;;;;;;4965122;28;20062;-72
2024/01/14 08:30:06;;;;;;;46.38;18.05;;;-3.00;99.90;;;;;;4969094;28;20038;-72
2024/01/14 08:32:32;;;;;;;47.15;18.27;;;-2.90;99.90;;;;;;4964881;28;20027;-72
2024/01/14 08:34:58;;;;;;;50.10;18.48;;;-2.90;99.90;;;;;;4964569;28;20023;-72
2024/01/14 08:37:24;;;;;;;52.40;19.83;;;-2.80;99.90;;;;;;4966589;28;20034;-71
2024/01/14 08:39:50;;;;;;;46.75;18.65;;;-2.80;99.90;;;;;;4966058;28;20034;-70
2024/01/14 08:42:17;;;;;;;45.95;20.17;;;-2.80;99.90;;;;;;4966153;28;20039;-71
2024/01/14 08:44:42;;;;;;;50.30;19.60;;;-2.70;99.90;;;;;;4973066;28;20058;-73
2024/01/14 08:47:08;;;;;;;51.55;21.02;;;-2.70;99.90;;;;;;4970695;28;20031;-73
2024/01/14 08:49:34;;;;;;;48.15;18.40;;;-2.70;99.90;;;;;;4969784;28;20504;-71
2024/01/14 08:52:01;;;;;;;48.42;18.42;;;-2.60;99.90;;;;;;4969974;28;20059;-74
2024/01/14 08:54:30;;;;;;;49.05;17.60;;;-2.50;99.90;;;;;;4973775;28;20125;-71
2024/01/14 08:56:56;;;;;;;47.17;18.90;;;-2.50;99.90;;;;;;4969480;28;20036;-72
2024/01/14 08:59:21;;;;;;;51.08;19.17;;;-2.50;99.90;;;;;;4972789;28;20410;-72
2024/01/14 09:01:47;;;;;;;45.65;19.83;;;-2.50;99.90;;;;;;4968773;28;20046;-73
2024/01/14 09:04:13;;;;;;;49.60;19.08;;;-2.40;99.90;;;;;;4972094;28;20033;-73
2024/01/14 09:06:39;;;;;;;44.33;17.85;;;-2.40;99.90;;;;;;4971902;28;20035;-73
2024/01/14 09:09:06;;;;;;;43.67;17.45;;;-2.40;99.90;;;;;;4972547;28;20031;-73
2024/01/14 09:11:32;;;;;;;45.60;17.92;;;-2.40;99.90;;;;;;4971558;28;20034;-74
2024/01/14 09:13:58;;;;;;;48.70;18.08;;;-2.40;99.90;;;;;;4968260;28;20035;-73
2024/01/14 09:16:24;;;;;;;46.55;18.58;;;-2.30;99.90;;;;;;4968097;28;20090;-73
2024/01/14 09:18:49;;;;;;;45.20;17.42;;;-2.40;99.90;;;;;;4966799;28;20039;-73
2024/01/14 09:21:15;;;;;;;44.03;17.88;;;-2.40;99.90;;;;;;4968216;28;20038;-71
2024/01/14 09:23:41;;;;;;;44.75;17.85;;;-2.40;99.90;;;;;;4968224;28;20123;-71
2024/01/14 09:26:06;;;;;;;37.88;16.17;;;-2.40;99.90;;;;;;4967973;28;20035;-71
2024/01/14 09:28:32;;;;;;;44.47;18.02;;;-2.40;99.90;;;;;;4969805;28;20457;-71
2024/01/14 09:30:58;;;;;;;45.90;16.88;;;-2.40;99.90;;;;;;4967014;28;20023;-72
2024/01/14 09:33:24;;;;;;;45.70;18.63;;;-2.40;99.90;;;;;;4969187;28;20105;-72
2024/01/14 09:35:49;;;;;;;48.28;17.95;;;-2.40;99.90;;;;;;4969263;28;20408;-72
2024/01/14 09:38:15;;;;;;;48.40;18.17;;;-2.40;99.90;;;;;;4967955;28;20074;-71
2024/01/14 09:40:41;;;;;;;49.10;18.58;;;-2.40;99.90;;;;;;4969656;28;20521;-71
2024/01/14 09:43:11;;;;;;;51.42;19.73;;;-2.40;99.90;;;;;;4971125;28;20105;-72
2024/01/14 09:45:40;;;;;;;49.38;17.92;;;-2.40;99.90;;;;;;4964145;28;20023;-72
2024/01/14 09:48:09;;;;;;;46.97;18.25;;;-2.40;99.90;;;;;;4957026;28;20427;-73
2024/01/14 09:50:36;;;;;;;43.90;17.52;;;-2.40;99.90;;;;;;4966453;28;20026;-74
2024/01/14 09:53:09;;;;;;;39.53;16.65;;;-2.30;99.90;;;;;;4968082;28;20031;-72
2024/01/14 09:55:35;;;;;;;;;;;-2.30;99.90;;;;;;4964700;28;20054;-73
2024/01/14 09:58:03;;;;;;;41.90;16.65;;;-2.30;99.90;;;;;;4969831;28;19949;-73
2024/01/14 10:00:30;;;;;;;44.20;17.02;;;-2.40;99.90;;;;;;4971073;28;20253;-72
2024/01/14 10:02:56;;;;;;;46.15;17.88;;;-2.40;99.90;;;;;;4970298;28;20034;-72
2024/01/14 10:05:22;;;;;;;44.85;16.63;;;-2.30;99.90;;;;;;4967889;28;20023;-73
2024/01/14 10:07:48;;;;;;;42.80;16.17;;;-2.30;99.90;;;;;;4965243;28;20042;-72
2024/01/14 10:10:14;;;;;;;41.83;15.57;;;-2.30;99.90;;;;;;4969945;28;20022;-72
2024/01/14 10:12:40;;;;;;;43.97;17.63;;;-2.20;99.90;;;;;;4970092;28;20026;-73
2024/01/14 10:15:06;;;;;;;44.47;17.55;;;-2.20;99.90;;;;;;4963710;28;20102;-73
2024/01/14 10:17:33;;;;;;;42.83;17.60;;;-2.10;99.90;;;;;;4968404;28;20035;-73
2024/01/14 10:19:58;;;;;;;40.03;16.50;;;-2.10;99.90;;;;;;4970340;28;20045;-72
2024/01/14 10:22:27;;;;;;;39.95;16.33;;;-2.00;99.90;;;;;;4969628;28;20470;-72
2024/01/14 10:24:55;;;;;;;41.92;17.15;;;-2.00;99.90;;;;;;4967601;28;20498;-72
2024/01/14 10:27:25;;;;;;;42.00;17.65;;;-2.00;99.90;;;;;;4967445;28;20106;-72
2024/01/14 10:29:51;;;;;;;40.63;16.45;;;-1.90;99.90;;;;;;4965336;28;20023;-72
2024/01/14 10:32:18;;;;;;;44.30;17.98;;;-1.90;99.90;;;;;;4971957;28;20034;-72
2024/01/14 10:34:45;;;;;;;40.58;16.85;;;-1.90;99.90;;;;;;4970997;28;20486;-72
2024/01/14 10:37:12;;;;;;;41.88;17.90;;;-1.90;99.90;;;;;;4972152;28;20037;-72
2024/01/14 10:39:38;;;;;;;48.17;17.92;;;-1.90;99.90;;;;;;4971130;28;20023;-71
2024/01/14 10:42:04;;;;;;;46.10;17.20;;;-1.80;99.90;;;;;;4972048;28;20026;-72
2024/01/14 10:44:30;;;;;;;35.67;15.60;;;-1.90;99.90;;;;;;4970202;28;20126;-72
2024/01/14 10:47:01;;;;;;;41.15;17.77;;;-1.90;99.90;;;;;;4970348;28;20061;-72
2024/01/14 10:49:27;;;;;;;43.92;17.25;;;-2.00;99.90;;;;;;4970232;28;20025;-72
2024/01/14 10:52:07;;;;;;;44.42;18.25;;;-1.90;99.90;;;;;;4969080;28;20023;-72
2024/01/14 10:54:51;;;;;;;43.05;17.48;;;-1.90;99.90;;;;;;4971555;28;20027;-72
2024/01/14 10:57:35;;;;;;;;;;;-1.80;99.90;;;;;;4971898;28;20390;-72
2024/01/14 11:00:10;;;;;;;38.47;16.42;;;-1.80;99.90;;;;;;4969612;28;19941;-72
2024/01/14 11:02:37;;;;;;;42.20;18.35;;;-1.80;99.90;;;;;;4969238;28;20030;-72
2024/01/14 11:05:05;;;;;;;38.65;15.77;;;-1.70;99.90;;;;;;4967330;28;20050;-72
2024/01/14 11:07:33;;;;;;;40.08;17.15;;;-1.70;99.90;;;;;;4971081;28;20018;-72
2024/01/14 11:09:59;;;;;;;45.10;17.15;;;-1.70;99.90;;;;;;4969899;28;20371;-72
2024/01/14 11:12:35;;;;;;;43.05;17.17;;;-1.70;99.90;;;;;;4970468;28;20513;-72
2024/01/14 11:15:24;;;;;;;42.90;18.52;;;-1.60;99.90;;;;;;4966805;28;20493;-72
2024/01/14 11:18:05;;;;;;;41.53;16.63;;;-1.60;99.90;;;;;;4968803;28;20038;-72
2024/01/14 11:20:35;;;;;;;41.00;16.98;;;-1.60;99.90;;;;;;4967938;28;20090;-72
2024/01/14 11:23:01;;;;;;;41.25;16.83;;;-1.60;99.90;;;;;;4970827;28;20019;-72
2024/01/14 11:25:35;;;;;;;39.53;16.45;;;-1.60;99.90;;;;;;4961321;28;20509;-72
2024/01/14 11:28:02;;;;;;;;;;;-1.60;99.90;;;;;;4969354;28;20026;-72
2024/01/14 11:30:47;;;;;;;43.03;16.95;;;-1.60;99.90;;;;;;4965355;28;20285;-74
2024/01/14 11:33:32;;;;;;;44.30;18.20;;;-1.50;99.90;;;;;;4968247;28;20026;-72
2024/01/14 11:35:58;;;;;;;45.10;19.20;;;-1.40;99.90;;;;;;4969586;28;20078;-72
2024/01/14 11:38:34;;;;;;;42.55;16.73;;;-1.50;99.90;;;;;;4972153;28;20023;-72
2024/01/14 11:41:25;;;;;;;45.33;16.83;;;-1.40;99.90;;;;;;4970483;28;20034;-72
2024/01/14 11:44:02;;;;;;;44.22;17.02;;;-1.30;99.90;;;;;;4967294;28;20055;-72
2024/01/14 11:46:34;;;;;;;40.00;17.52;;;-1.30;99.90;;;;;;4982575;28;20031;-73
2024/01/14 11:49:03;;;;;;;45.85;17.98;;;-1.30;99.90;;;;;;4980325;28;20019;-72
2024/01/14 11:51:31;;;;;;;38.88;16.77;;;-1.30;99.90;;;;;;4971724;28;20023;-72
2024/01/14 11:53:59;;;;;;;41.42;17.48;;;-1.30;99.90;;;;;;4970302;28;20015;-72
2024/01/14 11:56:29;;;;;;;43.65;17.13;;;-1.30;99.90;;;;;;4970093;28;20027;-72
2024/01/14 11:58:57;;;;;;;41.95;16.95;;;-1.30;99.90;;;;;;4968301;28;20031;-72
2024/01/14 12:01:24;;;;;;;46.45;17.52;;;-1.20;99.90;;;;;;4969571;28;20042;-72
2024/01/14 12:04:08;;;;;;;43.25;18.45;;;-1.20;99.90;;;;;;4969327;28;20157;-72
2024/01/14 12:06:44;;;;;;;46.47;17.15;;;-1.20;99.90;;;;;;4962392;28;20030;-72
2024/01/14 12:09:12;;;;;;;43.30;16.45;;;-1.20;99.90;;;;;;4958930;28;20062;-72
2024/01/14 12:11:39;;;;;;;37.42;16.95;;;-1.20;99.90;;;;;;4969400;28;20019;-72
2024/01/14 12:14:05;;;;;;;46.95;17.67;;;-1.10;99.90;;;;;;4963515;28;20076;-72
2024/01/14 12:16:31;;;;;;;46.13;17.17;;;-1.10;99.90;;;;;;4962784;28;20049;-72
2024/01/14 12:18:57;;;;;;;43.17;17.85;;;-1.00;99.90;;;;;;4970705;28;20089;-72
2024/01/14 12:21:23;;;;;;;39.33;17.77;;;-1.00;99.90;;;;;;4964753;28;20058;-72
2024/01/14 12:23:52;;;;;;;40.10;16.05;;;-1.00;99.90;;;;;;4971481;28;20057;-71
2024/01/14 12:26:18;;;;;;;43.90;18.25;;;-0.90;99.90;;;;;;4970829;28;20486;-72